Time;durP1;ratioP1;P1;durP2;ratioP2;P2;SDS_P1;SDS_P2;PMS_P1;PMS_P2;Temp;Humidity;BMP_temperature;BMP_pressure;BME280_temperature;BME280_humidity;BME280_pressure;Samples;Min_cycle;Max_cycle;Signal;HPM_P1;HPM_P2
2023/05/29 15:25:45;;;;;;;28.67;27.13;;;22.40;53.70;;;;;;5088354;28;20537;-63
2023/05/29 15:28:13;;;;;;;28.73;27.13;;;22.30;53.80;;;;;;5088803;28;20498;-60
2023/05/29 15:30:39;;;;;;;28.90;27.50;;;22.40;53.50;;;;;;5088898;28;21045;-64
2023/05/29 15:33:09;;;;;;;31.90;30.00;;;22.50;53.20;;;;;;5088846;28;20466;-64
2023/05/29 15:35:36;;;;;;;27.90;26.50;;;22.60;53.00;;;;;;5086434;28;20951;-63
2023/05/29 15:38:03;;;;;;;28.97;27.10;;;22.70;52.80;;;;;;5108918;23;20562;-61
2023/05/29 15:40:30;;;;;;;29.07;27.67;;;22.80;52.50;;;;;;5049017;28;20965;-61
2023/05/29 15:42:58;;;;;;;30.17;28.27;;;22.80;52.10;;;;;;5047434;28;20480;-63
2023/05/29 15:45:25;;;;;;;29.93;27.93;;;22.80;51.80;;;;;;5040450;28;20560;-63
2023/05/29 15:47:53;;;;;;;30.83;28.80;;;22.80;51.70;;;;;;5037704;28;20469;-60
2023/05/29 15:50:21;;;;;;;30.60;28.70;;;22.80;52.10;;;;;;5042007;28;20528;-63
2023/05/29 15:52:49;;;;;;;30.57;28.83;;;22.90;51.90;;;;;;5040717;28;20440;-61
2023/05/29 15:55:16;;;;;;;30.10;28.50;;;22.80;51.00;;;;;;5047679;28;20784;-61
2023/05/29 15:57:43;;;;;;;27.83;26.43;;;22.90;50.70;;;;;;5035070;28;20912;-61
2023/05/29 16:00:13;;;;;;;28.37;26.60;;;22.90;50.70;;;;;;5042116;28;20464;-63
2023/05/29 16:02:40;;;;;;;30.53;28.70;;;23.00;50.60;;;;;;5032415;28;20498;-64
2023/05/29 16:05:07;;;;;;;27.63;26.20;;;22.90;50.50;;;;;;5029458;28;20560;-61
2023/05/29 16:07:35;;;;;;;27.90;26.37;;;23.00;50.50;;;;;;5033513;28;20527;-60
2023/05/29 16:10:02;;;;;;;28.00;26.60;;;23.00;50.50;;;;;;5043692;28;20451;-59
2023/05/29 16:12:29;;;;;;;27.23;25.73;;;23.00;50.40;;;;;;5037036;28;20452;-62
2023/05/29 16:14:56;;;;;;;27.33;25.93;;;23.00;50.10;;;;;;5041074;28;20453;-62
2023/05/29 16:17:24;;;;;;;26.63;25.23;;;23.00;50.00;;;;;;5028194;28;20858;-61
2023/05/29 16:19:54;;;;;;;29.17;27.60;;;23.00;49.80;;;;;;5037334;28;20810;-62
2023/05/29 16:22:21;;;;;;;28.93;27.60;;;22.90;49.60;;;;;;5047493;28;20453;-62
2023/05/29 16:24:48;;;;;;;27.07;25.60;;;22.90;49.40;;;;;;5034824;28;20481;-61
2023/05/29 16:27:15;;;;;;;29.27;27.53;;;22.90;49.30;;;;;;5048091;28;20984;-59
2023/05/29 16:29:42;;;;;;;27.97;26.50;;;22.90;49.20;;;;;;5039174;28;20616;-60
2023/05/29 16:32:09;;;;;;;29.10;27.30;;;22.90;49.10;;;;;;5042305;28;20527;-63
2023/05/29 16:34:37;;;;;;;26.93;25.60;;;22.90;48.80;;;;;;5047296;28;20515;-62
2023/05/29 16:37:08;;;;;;;27.33;25.93;;;22.90;48.80;;;;;;5014938;28;20474;-62
2023/05/29 16:39:35;;;;;;;28.37;27.00;;;23.00;48.70;;;;;;5014435;28;20999;-61
2023/05/29 16:42:02;;;;;;;28.43;26.93;;;23.00;48.70;;;;;;5014825;28;20486;-60
2023/05/29 16:44:29;;;;;;;27.93;26.30;;;23.00;48.80;;;;;;5014436;28;20485;-64
2023/05/29 16:46:55;;;;;;;27.13;25.93;;;23.00;48.70;;;;;;5016878;28;20537;-63
2023/05/29 16:49:23;;;;;;;26.40;25.23;;;23.10;48.80;;;;;;5034927;28;20560;-63
2023/05/29 16:51:51;;;;;;;28.40;26.80;;;23.10;48.60;;;;;;5034933;28;20934;-63
2023/05/29 16:54:18;;;;;;;26.90;25.50;;;23.10;48.70;;;;;;5034456;28;20492;-64
2023/05/29 16:56:45;;;;;;;27.37;25.87;;;23.20;48.60;;;;;;5034795;28;20954;-63
2023/05/29 16:59:12;;;;;;;28.07;26.77;;;23.10;48.20;;;;;;5034561;28;20469;-62
2023/05/29 17:01:40;;;;;;;27.90;26.40;;;23.10;48.10;;;;;;5034277;28;20460;-63
2023/05/29 17:04:08;;;;;;;27.20;25.80;;;23.10;48.10;;;;;;5034003;28;20476;-63
2023/05/29 17:06:36;;;;;;;27.57;26.00;;;23.20;47.90;;;;;;5034064;28;20946;-59
2023/05/29 17:09:04;;;;;;;28.13;26.53;;;23.10;48.30;;;;;;5034343;28;20496;-62
2023/05/29 17:11:31;;;;;;;27.40;25.77;;;23.20;48.00;;;;;;5034714;28;20445;-61
2023/05/29 17:13:58;;;;;;;27.43;26.00;;;23.10;47.60;;;;;;5034227;28;20480;-61
2023/05/29 17:16:25;;;;;;;28.90;27.50;;;23.20;47.90;;;;;;5034415;28;20449;-61
2023/05/29 17:18:52;;;;;;;28.30;26.77;;;23.20;47.70;;;;;;5034235;28;20551;-60
2023/05/29 17:21:18;;;;;;;27.73;26.30;;;23.20;47.50;;;;;;5033918;28;20453;-62
2023/05/29 17:23:45;;;;;;;27.97;26.47;;;23.20;47.40;;;;;;5029099;28;20956;-62
2023/05/29 17:26:14;;;;;;;27.40;26.00;;;23.20;47.00;;;;;;5014084;28;20481;-63
2023/05/29 17:28:41;;;;;;;27.30;25.93;;;23.20;46.60;;;;;;5026036;28;20465;-60
2023/05/29 17:31:08;;;;;;;27.63;26.30;;;23.20;46.20;;;;;;5027371;28;20453;-61
2023/05/29 17:33:35;;;;;;;28.13;26.63;;;23.20;45.90;;;;;;5013633;28;20458;-59
2023/05/29 17:36:02;;;;;;;29.13;27.00;;;23.20;45.60;;;;;;5027764;28;20536;-63
2023/05/29 17:38:29;;;;;;;28.00;26.60;;;23.20;45.50;;;;;;5031115;28;20512;-58
2023/05/29 17:40:56;;;;;;;27.77;26.30;;;23.30;45.30;;;;;;5014624;28;20474;-62
2023/05/29 17:43:24;;;;;;;27.50;26.00;;;23.30;44.90;;;;;;5013086;28;20526;-65
2023/05/29 17:45:52;;;;;;;27.23;25.83;;;23.40;44.50;;;;;;5026028;28;20559;-60
2023/05/29 17:48:20;;;;;;;28.53;26.80;;;23.40;44.40;;;;;;5031891;28;20465;-59
2023/05/29 17:50:47;;;;;;;28.97;27.30;;;23.40;44.30;;;;;;5021409;28;20453;-59
2023/05/29 17:53:14;;;;;;;28.77;27.07;;;23.40;44.40;;;;;;5014229;28;20790;-59
2023/05/29 17:55:41;;;;;;;30.40;28.00;;;23.40;44.40;;;;;;5028954;28;20859;-61
2023/05/29 17:58:08;;;;;;;28.80;26.97;;;23.40;44.50;;;;;;5013205;28;20505;-59
2023/05/29 18:00:37;;;;;;;28.53;26.60;;;23.50;45.20;;;;;;5021124;28;20452;-63
2023/05/29 18:03:05;;;;;;;28.67;26.63;;;23.60;45.50;;;;;;5032519;28;20455;-60
2023/05/29 18:05:32;;;;;;;29.77;27.80;;;23.70;45.60;;;;;;5018393;28;20568;-62
2023/05/29 18:07:59;;;;;;;29.52;27.48;;;23.80;45.80;;;;;;5030270;28;20485;-59
2023/05/29 18:10:26;;;;;;;32.73;30.43;;;23.90;45.50;;;;;;5024001;28;20240;-61
2023/05/29 18:12:52;;;;;;;31.53;29.30;;;24.00;45.80;;;;;;5014454;28;20513;-62
2023/05/29 18:15:20;;;;;;;30.40;28.17;;;24.00;45.60;;;;;;5022938;28;20525;-60
2023/05/29 18:17:48;;;;;;;31.17;29.03;;;24.10;45.70;;;;;;5012862;28;20887;-62
2023/05/29 18:20:18;;;;;;;32.37;29.87;;;24.10;45.90;;;;;;5017279;28;20474;-61
2023/05/29 18:22:45;;;;;;;29.20;27.40;;;24.10;45.50;;;;;;5027221;28;20465;-62
2023/05/29 18:25:14;;;;;;;30.87;28.83;;;24.20;45.80;;;;;;5013593;28;20909;-61
2023/05/29 18:27:41;;;;;;;31.40;28.97;;;24.20;45.70;;;;;;5015605;28;20832;-60
2023/05/29 18:30:09;;;;;;;30.37;28.17;;;24.20;45.70;;;;;;5025176;28;20541;-62
2023/05/29 18:32:38;;;;;;;29.50;27.40;;;24.20;45.60;;;;;;5020679;28;20525;-64
2023/05/29 18:35:08;;;;;;;30.63;28.80;;;24.20;45.70;;;;;;5025097;28;20469;-63
2023/05/29 18:37:35;;;;;;;30.23;28.27;;;24.30;45.80;;;;;;5033302;28;21004;-64
2023/05/29 18:40:03;;;;;;;28.23;26.60;;;24.30;45.90;;;;;;5028179;28;20529;-63
2023/05/29 18:42:30;;;;;;;29.53;27.50;;;24.40;45.90;;;;;;5029754;28;20484;-63
2023/05/29 18:44:57;;;;;;;27.30;25.80;;;24.40;46.50;;;;;;5017906;28;20556;-65
2023/05/29 18:47:24;;;;;;;27.17;25.53;;;24.50;45.90;;;;;;5032667;28;20815;-65
2023/05/29 18:49:53;;;;;;;26.38;24.58;;;24.50;45.90;;;;;;5029572;28;20492;-63
2023/05/29 18:52:23;;;;;;;28.30;26.40;;;24.40;45.00;;;;;;5012815;28;20203;-62
2023/05/29 18:54:49;;;;;;;28.07;26.00;;;24.50;45.20;;;;;;5022011;28;20681;-61
2023/05/29 18:57:16;;;;;;;27.67;26.07;;;24.60;45.50;;;;;;5018353;28;20489;-61
2023/05/29 18:59:43;;;;;;;27.70;26.27;;;24.60;45.50;;;;;;5027161;28;20477;-60
2023/05/29 19:02:10;;;;;;;25.63;24.40;;;24.50;45.00;;;;;;5015331;28;20450;-59
2023/05/29 19:04:37;;;;;;;27.33;25.83;;;24.50;45.60;;;;;;5011991;28;20533;-62
2023/05/29 19:07:05;;;;;;;27.13;25.73;;;24.50;44.90;;;;;;5026490;28;20944;-61
2023/05/29 19:09:33;;;;;;;27.70;25.87;;;24.60;44.90;;;;;;5012839;28;20906;-57
2023/05/29 19:12:00;;;;;;;24.13;22.73;;;24.60;43.90;;;;;;5018404;28;20539;-65
2023/05/29 19:14:27;;;;;;;24.90;23.50;;;24.50;43.40;;;;;;5029806;28;20532;-64
2023/05/29 19:16:54;;;;;;;26.40;25.10;;;24.50;43.60;;;;;;5029326;28;20481;-64
2023/05/29 19:19:21;;;;;;;27.07;25.50;;;24.40;43.70;;;;;;5017383;28;20580;-63
2023/05/29 19:21:50;;;;;;;28.90;27.17;;;24.30;43.50;;;;;;5013408;28;20489;-59
2023/05/29 19:24:17;;;;;;;27.83;26.50;;;24.30;43.90;;;;;;4996386;28;20817;-64
2023/05/29 19:26:47;;;;;;;25.30;23.90;;;24.30;43.70;;;;;;5013354;28;20484;-63
2023/05/29 19:29:16;;;;;;;25.13;23.50;;;24.30;43.60;;;;;;5022556;28;21024;-64
2023/05/29 19:31:46;;;;;;;25.37;23.77;;;24.30;43.50;;;;;;5015860;28;20457;-64
2023/05/29 19:34:13;;;;;;;25.40;24.13;;;24.30;43.40;;;;;;5026915;28;21015;-64
2023/05/29 19:36:40;;;;;;;24.83;23.43;;;24.20;43.20;;;;;;5016494;28;20840;-62
2023/05/29 19:39:08;;;;;;;24.07;22.77;;;24.20;43.30;;;;;;5020663;28;20500;-63
2023/05/29 19:41:37;;;;;;;25.67;24.07;;;24.20;43.40;;;;;;5015505;28;20545;-63
2023/05/29 19:44:07;;;;;;;23.40;22.30;;;24.20;43.50;;;;;;5011489;28;20532;-63
2023/05/29 19:46:35;;;;;;;24.60;23.23;;;24.20;43.70;;;;;;5027207;28;20551;-62
2023/05/29 19:49:02;;;;;;;24.03;22.73;;;24.20;43.70;;;;;;5031245;28;20551;-64
2023/05/29 19:51:29;;;;;;;24.30;23.00;;;24.10;43.60;;;;;;5016931;28;20454;-59
2023/05/29 19:53:56;;;;;;;23.53;22.43;;;24.10;43.60;;;;;;5013939;28;20545;-61
2023/05/29 19:56:23;;;;;;;24.37;22.97;;;24.10;43.60;;;;;;5031307;28;20448;-64
2023/05/29 19:58:50;;;;;;;24.40;23.10;;;24.10;43.50;;;;;;5031267;28;20548;-64
2023/05/29 20:01:18;;;;;;;23.53;22.33;;;24.10;43.60;;;;;;5020860;28;20509;-64
2023/05/29 20:03:45;;;;;;;23.97;22.47;;;24.10;44.20;;;;;;5020957;28;21006;-61
2023/05/29 20:06:12;;;;;;;24.50;23.30;;;24.10;43.60;;;;;;5018541;28;20486;-63
2023/05/29 20:08:39;;;;;;;23.63;22.43;;;24.10;43.50;;;;;;5011852;28;20551;-62
2023/05/29 20:11:06;;;;;;;23.77;22.57;;;24.10;43.60;;;;;;5019927;28;20462;-62
2023/05/29 20:13:33;;;;;;;23.03;22.00;;;24.10;43.40;;;;;;5028212;28;20510;-65
2023/05/29 20:16:00;;;;;;;23.60;22.47;;;24.10;43.50;;;;;;5022102;28;20528;-64
2023/05/29 20:18:28;;;;;;;24.10;23.00;;;24.10;43.60;;;;;;5034568;28;20473;-60
2023/05/29 20:20:55;;;;;;;23.37;22.27;;;24.10;43.70;;;;;;5020400;28;20453;-65
2023/05/29 20:23:25;;;;;;;24.30;23.10;;;24.10;43.80;;;;;;5014866;28;20524;-63
2023/05/29 20:25:52;;;;;;;24.13;22.90;;;24.10;43.80;;;;;;5015983;28;20488;-61
2023/05/29 20:28:20;;;;;;;23.80;22.50;;;24.10;43.80;;;;;;5031218;28;20483;-63
2023/05/29 20:30:47;;;;;;;24.10;22.90;;;24.00;43.80;;;;;;5027289;28;20452;-62
2023/05/29 20:33:14;;;;;;;23.13;22.13;;;24.00;44.00;;;;;;5015696;28;20477;-60
2023/05/29 20:35:42;;;;;;;23.20;22.20;;;24.10;44.00;;;;;;5021900;28;20474;-61
2023/05/29 20:38:09;;;;;;;25.57;24.13;;;24.10;44.00;;;;;;5026697;28;20480;-59
2023/05/29 20:40:36;;;;;;;24.07;22.67;;;24.10;43.90;;;;;;5028785;28;20465;-61
2023/05/29 20:43:05;;;;;;;24.40;23.00;;;24.10;43.70;;;;;;5034148;28;20544;-60
2023/05/29 20:45:32;;;;;;;24.30;23.20;;;24.20;43.80;;;;;;5024760;28;20490;-63
2023/05/29 20:47:59;;;;;;;24.03;22.90;;;24.20;43.80;;;;;;5025350;28;20560;-62
2023/05/29 20:50:26;;;;;;;23.80;22.50;;;24.20;43.70;;;;;;5028643;28;20482;-62
2023/05/29 20:52:55;;;;;;;25.27;23.87;;;24.20;43.80;;;;;;5019625;28;20441;-63
2023/05/29 20:55:22;;;;;;;23.67;22.30;;;24.20;43.70;;;;;;5027596;28;20450;-64
2023/05/29 20:57:48;;;;;;;23.40;22.30;;;24.20;43.60;;;;;;5014273;28;20511;-63
2023/05/29 21:00:17;;;;;;;22.90;21.90;;;24.20;43.60;;;;;;5015842;28;20526;-62
2023/05/29 21:02:44;;;;;;;24.27;22.83;;;24.20;43.70;;;;;;5032459;28;20449;-56
2023/05/29 21:05:11;;;;;;;24.47;23.07;;;24.10;43.70;;;;;;5013921;28;20489;-55
2023/05/29 21:07:38;;;;;;;23.40;22.23;;;24.10;43.90;;;;;;5022011;28;20863;-55
2023/05/29 21:10:08;;;;;;;23.87;22.77;;;24.00;43.90;;;;;;5030892;28;20499;-55
2023/05/29 21:12:36;;;;;;;23.53;22.33;;;23.90;43.90;;;;;;5032976;28;20449;-55
2023/05/29 21:15:03;;;;;;;24.50;23.20;;;23.90;44.00;;;;;;5031143;28;20449;-55
2023/05/29 21:17:30;;;;;;;23.87;22.67;;;23.90;44.20;;;;;;5013880;28;20525;-58
2023/05/29 21:20:00;;;;;;;23.00;21.90;;;23.80;44.00;;;;;;5030082;28;20515;-56
2023/05/29 21:22:27;;;;;;;24.10;23.00;;;23.80;44.00;;;;;;5024771;28;20446;-57
2023/05/29 21:24:54;;;;;;;23.40;22.13;;;23.70;44.10;;;;;;5015246;28;20541;-57
2023/05/29 21:27:23;;;;;;;23.90;22.80;;;23.70;44.20;;;;;;5013531;28;20477;-54
2023/05/29 21:29:50;;;;;;;26.00;24.47;;;23.70;44.20;;;;;;5024397;28;20545;-54
2023/05/29 21:32:18;;;;;;;22.60;21.50;;;23.60;44.30;;;;;;5020650;28;20442;-59
2023/05/29 21:34:44;;;;;;;24.13;22.93;;;23.60;44.40;;;;;;5009598;28;20541;-55
2023/05/29 21:37:11;;;;;;;23.17;22.17;;;23.60;44.40;;;;;;5001481;28;20529;-54
2023/05/29 21:39:38;;;;;;;24.10;22.70;;;23.50;44.40;;;;;;5014609;28;20516;-57
2023/05/29 21:42:06;;;;;;;23.63;22.63;;;23.50;44.50;;;;;;5030666;28;20476;-54
2023/05/29 21:44:34;;;;;;;24.17;22.97;;;23.40;44.40;;;;;;5019532;28;20998;-54
2023/05/29 21:47:01;;;;;;;23.67;22.47;;;23.40;44.50;;;;;;5028048;28;21082;-57
2023/05/29 21:49:28;;;;;;;24.53;23.10;;;23.40;44.60;;;;;;5014413;28;20580;-55
2023/05/29 21:51:55;;;;;;;24.60;23.20;;;23.40;44.50;;;;;;5014158;28;20537;-54
2023/05/29 21:54:22;;;;;;;23.43;22.40;;;23.40;44.50;;;;;;5013095;28;20485;-54
2023/05/29 21:56:49;;;;;;;23.20;22.20;;;23.30;44.40;;;;;;5013412;28;20473;-54
2023/05/29 21:59:16;;;;;;;22.80;21.90;;;23.30;44.40;;;;;;5030728;28;20477;-54
2023/05/29 22:01:45;;;;;;;22.83;21.83;;;23.30;44.40;;;;;;5018759;28;20492;-54
2023/05/29 22:04:12;;;;;;;26.20;24.70;;;23.20;44.40;;;;;;5016789;28;20486;-54
2023/05/29 22:06:39;;;;;;;23.90;22.63;;;23.20;44.30;;;;;;5028972;28;20561;-54
2023/05/29 22:09:06;;;;;;;22.73;21.63;;;23.20;44.40;;;;;;4997223;28;20521;-55
2023/05/29 22:11:33;;;;;;;23.33;22.23;;;23.20;44.50;;;;;;5022300;28;20463;-54
2023/05/29 22:14:00;;;;;;;22.43;21.43;;;23.20;44.50;;;;;;5032385;28;20453;-54
2023/05/29 22:16:27;;;;;;;31.93;30.53;;;23.10;44.40;;;;;;5024727;28;20529;-56
2023/05/29 22:18:55;;;;;;;24.60;23.40;;;23.10;44.50;;;;;;5012782;28;20549;-54
2023/05/29 22:21:24;;;;;;;24.87;23.57;;;23.10;44.40;;;;;;5021809;28;20540;-55
2023/05/29 22:23:51;;;;;;;25.33;24.17;;;23.10;44.30;;;;;;5013551;28;20959;-54
2023/05/29 22:26:20;;;;;;;24.70;23.60;;;23.00;44.30;;;;;;5013706;28;20572;-55
2023/05/29 22:28:47;;;;;;;25.40;24.10;;;23.00;44.40;;;;;;5012468;28;20845;-54
2023/05/29 22:31:14;;;;;;;25.20;24.00;;;23.00;44.20;;;;;;5016324;28;20457;-57
2023/05/29 22:33:40;;;;;;;25.20;24.00;;;23.00;44.30;;;;;;5031523;28;20477;-54
2023/05/29 22:36:09;;;;;;;24.83;23.73;;;23.00;44.40;;;;;;5019861;28;20473;-54
2023/05/29 22:38:36;;;;;;;24.87;23.53;;;22.90;44.30;;;;;;5027904;28;20559;-57
2023/05/29 22:41:03;;;;;;;24.37;23.23;;;22.90;44.60;;;;;;5026864;28;20529;-55
2023/05/29 22:43:30;;;;;;;26.63;25.23;;;22.90;44.40;;;;;;5012126;28;20538;-54
2023/05/29 22:45:58;;;;;;;25.40;24.33;;;22.90;44.40;;;;;;5012273;28;20518;-58
2023/05/29 22:48:25;;;;;;;25.43;23.87;;;22.90;44.50;;;;;;5022784;28;20469;-54
2023/05/29 22:50:54;;;;;;;25.30;24.00;;;22.90;44.50;;;;;;5028615;28;20480;-55
2023/05/29 22:53:24;;;;;;;23.70;22.70;;;22.80;44.30;;;;;;5025681;28;20532;-54
2023/05/29 22:55:51;;;;;;;25.23;24.13;;;22.80;44.30;;;;;;5030295;28;20452;-54
2023/05/29 22:58:18;;;;;;;24.60;23.40;;;22.80;44.30;;;;;;5016115;28;21009;-55
2023/05/29 23:00:45;;;;;;;25.47;24.27;;;22.80;44.30;;;;;;5027279;28;20482;-58
2023/05/29 23:03:13;;;;;;;30.23;28.97;;;22.80;44.30;;;;;;5014893;28;20448;-55
2023/05/29 23:05:40;;;;;;;22.47;21.33;;;22.80;44.30;;;;;;5031831;28;20449;-54
2023/05/29 23:08:09;;;;;;;23.10;21.77;;;22.80;44.40;;;;;;5023068;28;20549;-57
2023/05/29 23:10:37;;;;;;;21.90;20.90;;;22.80;44.40;;;;;;5023508;28;20445;-55
2023/05/29 23:13:04;;;;;;;22.30;21.20;;;22.70;44.30;;;;;;5019780;28;20993;-54
2023/05/29 23:15:31;;;;;;;22.53;21.40;;;22.70;44.30;;;;;;5019542;28;20943;-54
2023/05/29 23:18:00;;;;;;;23.30;21.80;;;22.70;44.30;;;;;;5019035;28;20484;-54
2023/05/29 23:20:27;;;;;;;25.43;23.80;;;22.70;44.20;;;;;;5020209;28;20438;-54
2023/05/29 23:22:53;;;;;;;25.13;23.77;;;22.70;44.30;;;;;;5028837;28;21010;-55
2023/05/29 23:25:21;;;;;;;25.37;24.07;;;22.70;44.30;;;;;;5029821;28;20528;-54
2023/05/29 23:27:49;;;;;;;25.93;24.73;;;22.70;44.30;;;;;;5015638;28;20565;-56
2023/05/29 23:30:16;;;;;;;25.70;24.60;;;22.70;44.40;;;;;;5020182;28;20473;-57
2023/05/29 23:32:43;;;;;;;25.20;24.00;;;22.60;44.30;;;;;;5014505;28;20952;-55
2023/05/29 23:35:10;;;;;;;23.00;22.00;;;22.60;44.30;;;;;;5026733;28;20457;-53
2023/05/29 23:37:37;;;;;;;22.97;21.97;;;22.60;44.30;;;;;;5011598;28;20473;-55
2023/05/29 23:40:05;;;;;;;22.87;21.77;;;22.60;44.40;;;;;;5015769;28;20520;-53
2023/05/29 23:42:32;;;;;;;22.70;21.60;;;22.60;44.30;;;;;;5026847;28;20460;-53
2023/05/29 23:45:00;;;;;;;22.20;21.20;;;22.60;44.40;;;;;;5014421;28;20553;-54
2023/05/29 23:47:27;;;;;;;22.60;21.50;;;22.60;44.40;;;;;;5034946;28;21296;-53
2023/05/29 23:49:54;;;;;;;21.83;20.90;;;22.60;44.50;;;;;;5034647;28;20480;-53
2023/05/29 23:52:23;;;;;;;22.77;21.57;;;22.60;44.50;;;;;;5019207;28;20810;-53
2023/05/29 23:54:50;;;;;;;22.20;20.90;;;22.60;44.50;;;;;;5035203;28;20531;-55
2023/05/29 23:57:17;;;;;;;21.77;20.57;;;22.60;44.60;;;;;;5033317;28;20875;-53
2023/05/29 23:59:44;;;;;;;23.20;21.90;;;22.50;44.50;;;;;;5016384;28;20947;-57
